sensor_id;sensor_type;location;lat;lon;timestamp;P1;durP1;ratioP1;P2;durP2;ratioP2
21754;SDS011;11039;50.028;19.938;2023-06-22T00:00:36;11.65;;;8.63;;
21754;SDS011;11039;50.028;19.938;2023-06-22T00:03:04;10.65;;;8.60;;
21754;SDS011;11039;50.028;19.938;2023-06-22T00:05:30;9.23;;;8.10;;
21754;SDS011;11039;50.028;19.938;2023-06-22T00:07:56;11.30;;;9.15;;
21754;SDS011;11039;50.028;19.938;2023-06-22T00:10:22;12.73;;;8.68;;
21754;SDS011;11039;50.028;19.938;2023-06-22T00:12:48;10.23;;;9.13;;
21754;SDS011;11039;50.028;19.938;2023-06-22T00:15:14;10.07;;;8.70;;
21754;SDS011;11039;50.028;19.938;2023-06-22T00:17:40;11.35;;;8.90;;
21754;SDS011;11039;50.028;19.938;2023-06-22T00:20:07;9.23;;;8.00;;
21754;SDS011;11039;50.028;19.938;2023-06-22T00:22:34;9.32;;;8.10;;
21754;SDS011;11039;50.028;19.938;2023-06-22T00:25:04;10.43;;;8.55;;
21754;SDS011;11039;50.028;19.938;2023-06-22T00:29:50;11.73;;;9.20;;
21754;SDS011;11039;50.028;19.938;2023-06-22T00:32:16;10.13;;;8.25;;
21754;SDS011;11039;50.028;19.938;2023-06-22T00:34:43;11.43;;;8.25;;
21754;SDS011;11039;50.028;19.938;2023-06-22T00:37:09;10.90;;;8.20;;
21754;SDS011;11039;50.028;19.938;2023-06-22T00:39:36;11.02;;;8.40;;
21754;SDS011;11039;50.028;19.938;2023-06-22T00:42:02;8.55;;;7.68;;
21754;SDS011;11039;50.028;19.938;2023-06-22T00:44:28;10.13;;;8.10;;
21754;SDS011;11039;50.028;19.938;2023-06-22T00:46:54;8.70;;;7.80;;
21754;SDS011;11039;50.028;19.938;2023-06-22T00:49:20;8.50;;;7.38;;
21754;SDS011;11039;50.028;19.938;2023-06-22T00:51:46;10.63;;;8.05;;
21754;SDS011;11039;50.028;19.938;2023-06-22T00:54:12;10.85;;;7.93;;
21754;SDS011;11039;50.028;19.938;2023-06-22T00:56:39;11.88;;;8.00;;
21754;SDS011;11039;50.028;19.938;2023-06-22T00:59:06;9.25;;;7.65;;
21754;SDS011;11039;50.028;19.938;2023-06-22T01:01:32;9.57;;;8.15;;
21754;SDS011;11039;50.028;19.938;2023-06-22T01:03:59;8.25;;;7.28;;
21754;SDS011;11039;50.028;19.938;2023-06-22T01:06:26;9.77;;;7.63;;
21754;SDS011;11039;50.028;19.938;2023-06-22T01:09:02;9.98;;;7.38;;
21754;SDS011;11039;50.028;19.938;2023-06-22T01:11:34;9.20;;;7.07;;
21754;SDS011;11039;50.028;19.938;2023-06-22T01:14:04;8.55;;;7.65;;
21754;SDS011;11039;50.028;19.938;2023-06-22T01:16:34;8.00;;;7.20;;
21754;SDS011;11039;50.028;19.938;2023-06-22T01:19:01;10.95;;;7.57;;
21754;SDS011;11039;50.028;19.938;2023-06-22T01:21:31;10.35;;;8.10;;
21754;SDS011;11039;50.028;19.938;2023-06-22T01:26:38;8.50;;;7.55;;
21754;SDS011;11039;50.028;19.938;2023-06-22T01:29:06;8.68;;;7.75;;
21754;SDS011;11039;50.028;19.938;2023-06-22T01:31:34;10.82;;;7.68;;
21754;SDS011;11039;50.028;19.938;2023-06-22T01:34:01;8.48;;;7.60;;
21754;SDS011;11039;50.028;19.938;2023-06-22T01:36:28;8.65;;;6.90;;
21754;SDS011;11039;50.028;19.938;2023-06-22T01:38:55;8.52;;;7.63;;
21754;SDS011;11039;50.028;19.938;2023-06-22T01:41:23;10.88;;;7.55;;
21754;SDS011;11039;50.028;19.938;2023-06-22T01:46:09;8.52;;;7.43;;
21754;SDS011;11039;50.028;19.938;2023-06-22T01:48:35;8.10;;;7.00;;
21754;SDS011;11039;50.028;19.938;2023-06-22T01:51:02;8.75;;;7.85;;
21754;SDS011;11039;50.028;19.938;2023-06-22T01:53:28;10.77;;;7.43;;
21754;SDS011;11039;50.028;19.938;2023-06-22T01:55:54;8.60;;;7.70;;
21754;SDS011;11039;50.028;19.938;2023-06-22T01:58:22;10.48;;;7.53;;
21754;SDS011;11039;50.028;19.938;2023-06-22T02:00:51;11.40;;;7.90;;
21754;SDS011;11039;50.028;19.938;2023-06-22T02:03:19;10.40;;;7.55;;
21754;SDS011;11039;50.028;19.938;2023-06-22T02:05:47;9.63;;;7.90;;
21754;SDS011;11039;50.028;19.938;2023-06-22T02:08:21;11.32;;;7.90;;
21754;SDS011;11039;50.028;19.938;2023-06-22T02:13:06;8.57;;;7.45;;
21754;SDS011;11039;50.028;19.938;2023-06-22T02:15:33;7.80;;;7.00;;
21754;SDS011;11039;50.028;19.938;2023-06-22T02:17:59;7.97;;;7.18;;
21754;SDS011;11039;50.028;19.938;2023-06-22T02:20:25;11.27;;;7.10;;
21754;SDS011;11039;50.028;19.938;2023-06-22T02:22:51;8.63;;;7.25;;
21754;SDS011;11039;50.028;19.938;2023-06-22T02:25:17;8.98;;;7.30;;
21754;SDS011;11039;50.028;19.938;2023-06-22T02:27:44;8.73;;;7.47;;
21754;SDS011;11039;50.028;19.938;2023-06-22T02:30:11;9.77;;;7.10;;
21754;SDS011;11039;50.028;19.938;2023-06-22T02:32:40;9.35;;;7.00;;
21754;SDS011;11039;50.028;19.938;2023-06-22T02:35:07;8.65;;;6.10;;
21754;SDS011;11039;50.028;19.938;2023-06-22T02:37:34;8.10;;;6.68;;
21754;SDS011;11039;50.028;19.938;2023-06-22T02:40:01;9.27;;;6.93;;
21754;SDS011;11039;50.028;19.938;2023-06-22T02:42:29;7.47;;;6.40;;
21754;SDS011;11039;50.028;19.938;2023-06-22T02:44:55;8.23;;;6.75;;
21754;SDS011;11039;50.028;19.938;2023-06-22T02:47:21;9.13;;;6.47;;
21754;SDS011;11039;50.028;19.938;2023-06-22T02:49:47;7.78;;;6.97;;
21754;SDS011;11039;50.028;19.938;2023-06-22T02:52:13;7.82;;;6.68;;
21754;SDS011;11039;50.028;19.938;2023-06-22T02:54:39;8.93;;;6.60;;
21754;SDS011;11039;50.028;19.938;2023-06-22T02:57:05;12.75;;;7.28;;
21754;SDS011;11039;50.028;19.938;2023-06-22T02:59:31;10.35;;;7.20;;
21754;SDS011;11039;50.028;19.938;2023-06-22T03:04:16;7.97;;;6.32;;
21754;SDS011;11039;50.028;19.938;2023-06-22T03:06:42;8.43;;;7.05;;
21754;SDS011;11039;50.028;19.938;2023-06-22T03:09:08;8.88;;;7.10;;
21754;SDS011;11039;50.028;19.938;2023-06-22T03:11:34;7.47;;;6.57;;
21754;SDS011;11039;50.028;19.938;2023-06-22T03:14:00;9.98;;;6.63;;
21754;SDS011;11039;50.028;19.938;2023-06-22T03:16:26;8.30;;;6.40;;
21754;SDS011;11039;50.028;19.938;2023-06-22T03:18:53;8.88;;;6.43;;
21754;SDS011;11039;50.028;19.938;2023-06-22T03:21:19;9.48;;;6.80;;
21754;SDS011;11039;50.028;19.938;2023-06-22T03:23:45;8.27;;;6.10;;
21754;SDS011;11039;50.028;19.938;2023-06-22T03:26:11;8.95;;;6.25;;
21754;SDS011;11039;50.028;19.938;2023-06-22T03:30:57;8.30;;;6.40;;
21754;SDS011;11039;50.028;19.938;2023-06-22T03:33:23;8.38;;;6.68;;
21754;SDS011;11039;50.028;19.938;2023-06-22T03:35:49;7.63;;;6.10;;
21754;SDS011;11039;50.028;19.938;2023-06-22T03:38:16;7.60;;;6.13;;
21754;SDS011;11039;50.028;19.938;2023-06-22T03:40:42;9.15;;;6.80;;
21754;SDS011;11039;50.028;19.938;2023-06-22T03:43:08;7.85;;;6.35;;
21754;SDS011;11039;50.028;19.938;2023-06-22T03:47:53;8.82;;;6.72;;
21754;SDS011;11039;50.028;19.938;2023-06-22T03:50:19;9.05;;;6.50;;
21754;SDS011;11039;50.028;19.938;2023-06-22T03:52:48;7.50;;;6.70;;
21754;SDS011;11039;50.028;19.938;2023-06-22T03:55:14;7.10;;;5.93;;
21754;SDS011;11039;50.028;19.938;2023-06-22T03:57:40;10.23;;;6.85;;
21754;SDS011;11039;50.028;19.938;2023-06-22T04:00:06;6.30;;;5.70;;
21754;SDS011;11039;50.028;19.938;2023-06-22T04:02:33;7.05;;;6.10;;
21754;SDS011;11039;50.028;19.938;2023-06-22T04:04:59;7.13;;;6.05;;
21754;SDS011;11039;50.028;19.938;2023-06-22T04:07:25;6.80;;;6.10;;
21754;SDS011;11039;50.028;19.938;2023-06-22T04:09:51;7.78;;;5.43;;
21754;SDS011;11039;50.028;19.938;2023-06-22T04:12:17;6.93;;;6.18;;
21754;SDS011;11039;50.028;19.938;2023-06-22T04:14:43;8.05;;;6.40;;
21754;SDS011;11039;50.028;19.938;2023-06-22T04:17:09;7.47;;;5.80;;
21754;SDS011;11039;50.028;19.938;2023-06-22T04:19:35;6.38;;;5.68;;
21754;SDS011;11039;50.028;19.938;2023-06-22T04:22:01;6.75;;;5.85;;
21754;SDS011;11039;50.028;19.938;2023-06-22T04:24:27;9.85;;;5.90;;
21754;SDS011;11039;50.028;19.938;2023-06-22T04:26:53;6.95;;;6.15;;
21754;SDS011;11039;50.028;19.938;2023-06-22T04:29:19;7.45;;;6.03;;
21754;SDS011;11039;50.028;19.938;2023-06-22T04:34:05;7.18;;;5.90;;
21754;SDS011;11039;50.028;19.938;2023-06-22T04:36:35;7.85;;;6.25;;
21754;SDS011;11039;50.028;19.938;2023-06-22T04:39:05;6.82;;;6.13;;
21754;SDS011;11039;50.028;19.938;2023-06-22T04:41:32;9.68;;;6.13;;
21754;SDS011;11039;50.028;19.938;2023-06-22T04:44:06;7.00;;;6.25;;
21754;SDS011;11039;50.028;19.938;2023-06-22T04:46:33;7.50;;;6.18;;
21754;SDS011;11039;50.028;19.938;2023-06-22T04:49:03;6.53;;;5.80;;
21754;SDS011;11039;50.028;19.938;2023-06-22T04:51:31;6.63;;;5.90;;
21754;SDS011;11039;50.028;19.938;2023-06-22T04:53:57;7.50;;;6.20;;
21754;SDS011;11039;50.028;19.938;2023-06-22T04:56:25;8.35;;;5.80;;
21754;SDS011;11039;50.028;19.938;2023-06-22T04:58:53;7.90;;;6.20;;
21754;SDS011;11039;50.028;19.938;2023-06-22T05:01:22;8.07;;;5.40;;
21754;SDS011;11039;50.028;19.938;2023-06-22T05:03:48;9.20;;;5.78;;
21754;SDS011;11039;50.028;19.938;2023-06-22T05:06:14;8.70;;;5.97;;
21754;SDS011;11039;50.028;19.938;2023-06-22T05:08:40;8.32;;;6.25;;
21754;SDS011;11039;50.028;19.938;2023-06-22T05:11:06;8.35;;;5.90;;
21754;SDS011;11039;50.028;19.938;2023-06-22T05:13:32;6.32;;;5.70;;
21754;SDS011;11039;50.028;19.938;2023-06-22T05:15:58;8.88;;;6.00;;
21754;SDS011;11039;50.028;19.938;2023-06-22T05:18:28;8.05;;;5.43;;
21754;SDS011;11039;50.028;19.938;2023-06-22T05:20:54;9.20;;;6.30;;
21754;SDS011;11039;50.028;19.938;2023-06-22T05:23:20;8.52;;;5.97;;
21754;SDS011;11039;50.028;19.938;2023-06-22T05:25:46;6.97;;;6.28;;
21754;SDS011;11039;50.028;19.938;2023-06-22T05:28:12;7.75;;;5.75;;
21754;SDS011;11039;50.028;19.938;2023-06-22T05:30:38;8.00;;;6.28;;
21754;SDS011;11039;50.028;19.938;2023-06-22T05:33:05;7.10;;;5.50;;
21754;SDS011;11039;50.028;19.938;2023-06-22T05:35:31;6.47;;;5.50;;
21754;SDS011;11039;50.028;19.938;2023-06-22T05:37:57;9.23;;;5.68;;
21754;SDS011;11039;50.028;19.938;2023-06-22T05:40:23;7.88;;;6.40;;
21754;SDS011;11039;50.028;19.938;2023-06-22T05:42:49;9.50;;;6.30;;
21754;SDS011;11039;50.028;19.938;2023-06-22T05:45:15;9.23;;;6.55;;
21754;SDS011;11039;50.028;19.938;2023-06-22T05:47:41;7.93;;;5.65;;
21754;SDS011;11039;50.028;19.938;2023-06-22T05:52:26;7.80;;;6.35;;
21754;SDS011;11039;50.028;19.938;2023-06-22T05:54:52;6.93;;;5.57;;
21754;SDS011;11039;50.028;19.938;2023-06-22T05:57:18;7.28;;;6.22;;
21754;SDS011;11039;50.028;19.938;2023-06-22T05:59:46;7.00;;;5.88;;
21754;SDS011;11039;50.028;19.938;2023-06-22T06:02:12;6.28;;;5.47;;
21754;SDS011;11039;50.028;19.938;2023-06-22T06:04:39;7.28;;;5.75;;
21754;SDS011;11039;50.028;19.938;2023-06-22T06:07:05;6.45;;;5.38;;
21754;SDS011;11039;50.028;19.938;2023-06-22T06:09:31;9.93;;;5.85;;
21754;SDS011;11039;50.028;19.938;2023-06-22T06:11:57;10.52;;;6.35;;
21754;SDS011;11039;50.028;19.938;2023-06-22T06:14:23;8.27;;;5.72;;
21754;SDS011;11039;50.028;19.938;2023-06-22T06:16:49;7.40;;;5.60;;
21754;SDS011;11039;50.028;19.938;2023-06-22T06:19:15;7.03;;;6.32;;
21754;SDS011;11039;50.028;19.938;2023-06-22T06:21:41;9.43;;;6.47;;
21754;SDS011;11039;50.028;19.938;2023-06-22T06:26:25;9.07;;;7.32;;
21754;SDS011;11039;50.028;19.938;2023-06-22T06:28:55;10.55;;;8.13;;
21754;SDS011;11039;50.028;19.938;2023-06-22T06:31:21;11.02;;;7.32;;
21754;SDS011;11039;50.028;19.938;2023-06-22T06:33:48;10.07;;;7.60;;
21754;SDS011;11039;50.028;19.938;2023-06-22T06:36:14;11.63;;;8.40;;
21754;SDS011;11039;50.028;19.938;2023-06-22T06:38:40;10.27;;;7.75;;
21754;SDS011;11039;50.028;19.938;2023-06-22T06:41:06;10.77;;;7.93;;
21754;SDS011;11039;50.028;19.938;2023-06-22T06:43:32;10.68;;;8.60;;
21754;SDS011;11039;50.028;19.938;2023-06-22T06:45:58;12.10;;;8.95;;
21754;SDS011;11039;50.028;19.938;2023-06-22T06:48:25;12.07;;;7.55;;
21754;SDS011;11039;50.028;19.938;2023-06-22T06:50:51;11.88;;;8.45;;
21754;SDS011;11039;50.028;19.938;2023-06-22T06:55:36;10.38;;;8.20;;
21754;SDS011;11039;50.028;19.938;2023-06-22T06:58:02;9.55;;;7.57;;
21754;SDS011;11039;50.028;19.938;2023-06-22T07:00:32;10.70;;;7.68;;
21754;SDS011;11039;50.028;19.938;2023-06-22T07:02:58;14.48;;;7.70;;
21754;SDS011;11039;50.028;19.938;2023-06-22T07:05:24;12.93;;;7.70;;
21754;SDS011;11039;50.028;19.938;2023-06-22T07:07:50;10.68;;;7.85;;
21754;SDS011;11039;50.028;19.938;2023-06-22T07:10:18;15.23;;;7.65;;
21754;SDS011;11039;50.028;19.938;2023-06-22T07:12:44;11.52;;;8.30;;
21754;SDS011;11039;50.028;19.938;2023-06-22T07:17:30;11.25;;;7.72;;
21754;SDS011;11039;50.028;19.938;2023-06-22T07:19:56;12.07;;;7.97;;
21754;SDS011;11039;50.028;19.938;2023-06-22T07:22:22;13.50;;;7.38;;
21754;SDS011;11039;50.028;19.938;2023-06-22T07:24:48;13.23;;;8.27;;
21754;SDS011;11039;50.028;19.938;2023-06-22T07:27:14;10.68;;;8.40;;
21754;SDS011;11039;50.028;19.938;2023-06-22T07:29:44;14.48;;;8.52;;
21754;SDS011;11039;50.028;19.938;2023-06-22T07:32:10;12.80;;;8.50;;
21754;SDS011;11039;50.028;19.938;2023-06-22T07:34:36;13.55;;;8.68;;
21754;SDS011;11039;50.028;19.938;2023-06-22T07:37:02;12.75;;;8.80;;
21754;SDS011;11039;50.028;19.938;2023-06-22T07:39:29;11.38;;;9.02;;
21754;SDS011;11039;50.028;19.938;2023-06-22T07:41:55;12.55;;;8.35;;
21754;SDS011;11039;50.028;19.938;2023-06-22T07:44:21;11.60;;;8.82;;
21754;SDS011;11039;50.028;19.938;2023-06-22T07:46:48;12.43;;;9.20;;
21754;SDS011;11039;50.028;19.938;2023-06-22T07:51:33;11.75;;;9.18;;
21754;SDS011;11039;50.028;19.938;2023-06-22T07:53:59;11.95;;;8.65;;
21754;SDS011;11039;50.028;19.938;2023-06-22T07:56:25;11.25;;;8.85;;
21754;SDS011;11039;50.028;19.938;2023-06-22T07:58:51;12.25;;;9.48;;
21754;SDS011;11039;50.028;19.938;2023-06-22T08:01:18;9.70;;;8.65;;
21754;SDS011;11039;50.028;19.938;2023-06-22T08:03:47;12.27;;;9.63;;
21754;SDS011;11039;50.028;19.938;2023-06-22T08:08:32;10.18;;;9.00;;
21754;SDS011;11039;50.028;19.938;2023-06-22T08:10:59;12.43;;;9.50;;
21754;SDS011;11039;50.028;19.938;2023-06-22T08:13:25;10.90;;;9.75;;
21754;SDS011;11039;50.028;19.938;2023-06-22T08:15:51;12.93;;;9.95;;
21754;SDS011;11039;50.028;19.938;2023-06-22T08:18:17;12.98;;;10.23;;
21754;SDS011;11039;50.028;19.938;2023-06-22T08:20:43;11.63;;;10.32;;
21754;SDS011;11039;50.028;19.938;2023-06-22T08:23:09;12.18;;;9.82;;
21754;SDS011;11039;50.028;19.938;2023-06-22T08:25:35;14.70;;;10.60;;
21754;SDS011;11039;50.028;19.938;2023-06-22T08:28:01;12.52;;;10.50;;
21754;SDS011;11039;50.028;19.938;2023-06-22T08:30:28;13.35;;;11.10;;
21754;SDS011;11039;50.028;19.938;2023-06-22T08:32:54;12.35;;;10.60;;
21754;SDS011;11039;50.028;19.938;2023-06-22T08:35:21;13.73;;;11.10;;
21754;SDS011;11039;50.028;19.938;2023-06-22T08:37:48;15.90;;;11.52;;
21754;SDS011;11039;50.028;19.938;2023-06-22T08:40:19;13.32;;;11.85;;
21754;SDS011;11039;50.028;19.938;2023-06-22T08:42:46;14.73;;;11.80;;
21754;SDS011;11039;50.028;19.938;2023-06-22T08:45:13;13.52;;;11.65;;
21754;SDS011;11039;50.028;19.938;2023-06-22T08:47:39;15.60;;;12.13;;
21754;SDS011;11039;50.028;19.938;2023-06-22T08:50:09;13.32;;;11.98;;
21754;SDS011;11039;50.028;19.938;2023-06-22T08:54:54;15.07;;;13.50;;
21754;SDS011;11039;50.028;19.938;2023-06-22T08:57:20;16.70;;;14.27;;
21754;SDS011;11039;50.028;19.938;2023-06-22T08:59:46;15.48;;;13.88;;
21754;SDS011;11039;50.028;19.938;2023-06-22T09:02:12;16.08;;;14.43;;
21754;SDS011;11039;50.028;19.938;2023-06-22T09:04:39;18.27;;;16.45;;
21754;SDS011;11039;50.028;19.938;2023-06-22T09:07:05;17.35;;;15.52;;
21754;SDS011;11039;50.028;19.938;2023-06-22T09:09:31;17.88;;;16.15;;
21754;SDS011;11039;50.028;19.938;2023-06-22T09:11:57;18.90;;;16.90;;
21754;SDS011;11039;50.028;19.938;2023-06-22T09:14:23;21.65;;;17.55;;
21754;SDS011;11039;50.028;19.938;2023-06-22T09:16:49;17.92;;;16.02;;
21754;SDS011;11039;50.028;19.938;2023-06-22T09:19:15;19.73;;;16.70;;
21754;SDS011;11039;50.028;19.938;2023-06-22T09:21:41;20.00;;;18.08;;
21754;SDS011;11039;50.028;19.938;2023-06-22T09:24:07;20.25;;;18.13;;
21754;SDS011;11039;50.028;19.938;2023-06-22T09:26:33;19.67;;;17.77;;
21754;SDS011;11039;50.028;19.938;2023-06-22T09:28:59;19.42;;;17.42;;
21754;SDS011;11039;50.028;19.938;2023-06-22T09:31:25;19.48;;;17.50;;
21754;SDS011;11039;50.028;19.938;2023-06-22T09:33:52;18.90;;;17.10;;
21754;SDS011;11039;50.028;19.938;2023-06-22T09:36:19;18.48;;;16.60;;
21754;SDS011;11039;50.028;19.938;2023-06-22T09:41:03;20.35;;;17.27;;
21754;SDS011;11039;50.028;19.938;2023-06-22T09:43:31;19.02;;;17.13;;
21754;SDS011;11039;50.028;19.938;2023-06-22T09:45:57;22.13;;;16.83;;
21754;SDS011;11039;50.028;19.938;2023-06-22T09:48:23;19.73;;;17.35;;
21754;SDS011;11039;50.028;19.938;2023-06-22T09:50:49;18.73;;;16.90;;
21754;SDS011;11039;50.028;19.938;2023-06-22T09:53:15;17.55;;;15.75;;
21754;SDS011;11039;50.028;19.938;2023-06-22T09:58:00;18.73;;;16.83;;
21754;SDS011;11039;50.028;19.938;2023-06-22T10:00:26;18.33;;;16.42;;
21754;SDS011;11039;50.028;19.938;2023-06-22T10:02:52;17.42;;;15.52;;
21754;SDS011;11039;50.028;19.938;2023-06-22T10:05:18;17.52;;;15.82;;
21754;SDS011;11039;50.028;19.938;2023-06-22T10:07:44;17.92;;;15.93;;
21754;SDS011;11039;50.028;19.938;2023-06-22T10:12:30;17.02;;;15.20;;
21754;SDS011;11039;50.028;19.938;2023-06-22T10:14:56;16.98;;;15.30;;
21754;SDS011;11039;50.028;19.938;2023-06-22T10:19:40;16.60;;;14.88;;
21754;SDS011;11039;50.028;19.938;2023-06-22T10:22:06;15.10;;;13.48;;
21754;SDS011;11039;50.028;19.938;2023-06-22T10:24:32;15.85;;;14.25;;
21754;SDS011;11039;50.028;19.938;2023-06-22T10:29:17;15.70;;;14.07;;
21754;SDS011;11039;50.028;19.938;2023-06-22T10:31:43;16.85;;;15.15;;
21754;SDS011;11039;50.028;19.938;2023-06-22T10:34:09;15.70;;;14.10;;
21754;SDS011;11039;50.028;19.938;2023-06-22T10:36:35;15.23;;;13.75;;
21754;SDS011;11039;50.028;19.938;2023-06-22T10:39:01;15.23;;;13.73;;
21754;SDS011;11039;50.028;19.938;2023-06-22T10:41:27;14.80;;;13.25;;
21754;SDS011;11039;50.028;19.938;2023-06-22T10:43:55;14.70;;;13.30;;
21754;SDS011;11039;50.028;19.938;2023-06-22T10:46:21;15.27;;;13.77;;
21754;SDS011;11039;50.028;19.938;2023-06-22T10:51:08;14.23;;;12.82;;
21754;SDS011;11039;50.028;19.938;2023-06-22T10:53:34;14.75;;;13.10;;
21754;SDS011;11039;50.028;19.938;2023-06-22T10:56:00;14.57;;;13.10;;
21754;SDS011;11039;50.028;19.938;2023-06-22T10:58:26;14.07;;;12.68;;
21754;SDS011;11039;50.028;19.938;2023-06-22T11:00:52;14.38;;;12.95;;
21754;SDS011;11039;50.028;19.938;2023-06-22T11:03:18;14.25;;;12.80;;
21754;SDS011;11039;50.028;19.938;2023-06-22T11:05:44;12.95;;;11.65;;
21754;SDS011;11039;50.028;19.938;2023-06-22T11:08:12;14.10;;;12.70;;
21754;SDS011;11039;50.028;19.938;2023-06-22T11:10:39;15.13;;;13.27;;
21754;SDS011;11039;50.028;19.938;2023-06-22T11:13:05;13.60;;;12.20;;
21754;SDS011;11039;50.028;19.938;2023-06-22T11:15:34;14.18;;;12.77;;
21754;SDS011;11039;50.028;19.938;2023-06-22T11:18:00;14.27;;;12.77;;
21754;SDS011;11039;50.028;19.938;2023-06-22T11:20:27;14.70;;;13.20;;
21754;SDS011;11039;50.028;19.938;2023-06-22T11:22:52;14.52;;;13.10;;
21754;SDS011;11039;50.028;19.938;2023-06-22T11:25:18;15.10;;;12.43;;
21754;SDS011;11039;50.028;19.938;2023-06-22T11:27:45;13.95;;;12.55;;
21754;SDS011;11039;50.028;19.938;2023-06-22T11:30:11;12.95;;;11.75;;
21754;SDS011;11039;50.028;19.938;2023-06-22T11:32:37;13.70;;;12.30;;
21754;SDS011;11039;50.028;19.938;2023-06-22T11:35:03;13.63;;;11.80;;
21754;SDS011;11039;50.028;19.938;2023-06-22T11:37:29;14.30;;;12.35;;
21754;SDS011;11039;50.028;19.938;2023-06-22T11:39:55;13.73;;;11.25;;
21754;SDS011;11039;50.028;19.938;2023-06-22T11:44:41;13.20;;;11.90;;
21754;SDS011;11039;50.028;19.938;2023-06-22T11:47:08;13.20;;;11.80;;
21754;SDS011;11039;50.028;19.938;2023-06-22T11:49:34;13.07;;;11.68;;
21754;SDS011;11039;50.028;19.938;2023-06-22T11:52:00;12.85;;;11.55;;
21754;SDS011;11039;50.028;19.938;2023-06-22T11:54:26;14.18;;;12.68;;
21754;SDS011;11039;50.028;19.938;2023-06-22T11:56:52;13.43;;;12.13;;
21754;SDS011;11039;50.028;19.938;2023-06-22T11:59:19;14.30;;;12.65;;
21754;SDS011;11039;50.028;19.938;2023-06-22T12:01:47;13.48;;;12.10;;
21754;SDS011;11039;50.028;19.938;2023-06-22T12:04:14;15.07;;;12.30;;
21754;SDS011;11039;50.028;19.938;2023-06-22T12:06:40;14.65;;;12.88;;
21754;SDS011;11039;50.028;19.938;2023-06-22T12:09:07;14.57;;;12.70;;
21754;SDS011;11039;50.028;19.938;2023-06-22T12:11:34;14.43;;;12.95;;
21754;SDS011;11039;50.028;19.938;2023-06-22T12:14:00;15.90;;;13.55;;
21754;SDS011;11039;50.028;19.938;2023-06-22T12:16:30;15.85;;;13.30;;
21754;SDS011;11039;50.028;19.938;2023-06-22T12:18:56;15.10;;;13.48;;
21754;SDS011;11039;50.028;19.938;2023-06-22T12:21:22;15.10;;;13.52;;
21754;SDS011;11039;50.028;19.938;2023-06-22T12:23:48;16.08;;;13.07;;
21754;SDS011;11039;50.028;19.938;2023-06-22T12:26:14;15.98;;;14.02;;
21754;SDS011;11039;50.028;19.938;2023-06-22T12:28:40;16.52;;;14.45;;
21754;SDS011;11039;50.028;19.938;2023-06-22T12:31:06;15.50;;;13.50;;
21754;SDS011;11039;50.028;19.938;2023-06-22T12:33:32;16.40;;;13.27;;
21754;SDS011;11039;50.028;19.938;2023-06-22T12:35:58;16.38;;;14.30;;
21754;SDS011;11039;50.028;19.938;2023-06-22T12:38:24;14.90;;;13.23;;
21754;SDS011;11039;50.028;19.938;2023-06-22T12:40:51;15.73;;;14.10;;
21754;SDS011;11039;50.028;19.938;2023-06-22T12:43:17;15.80;;;13.90;;
21754;SDS011;11039;50.028;19.938;2023-06-22T12:45:43;16.23;;;13.85;;
21754;SDS011;11039;50.028;19.938;2023-06-22T12:48:09;15.18;;;13.52;;
21754;SDS011;11039;50.028;19.938;2023-06-22T12:50:35;15.07;;;13.50;;
21754;SDS011;11039;50.028;19.938;2023-06-22T12:53:01;15.65;;;13.25;;
21754;SDS011;11039;50.028;19.938;2023-06-22T12:55:29;14.63;;;13.23;;
21754;SDS011;11039;50.028;19.938;2023-06-22T12:57:55;15.10;;;13.50;;
21754;SDS011;11039;50.028;19.938;2023-06-22T13:00:21;14.88;;;13.38;;
21754;SDS011;11039;50.028;19.938;2023-06-22T13:02:47;14.77;;;13.18;;
21754;SDS011;11039;50.028;19.938;2023-06-22T13:05:13;13.60;;;12.20;;
21754;SDS011;11039;50.028;19.938;2023-06-22T13:07:39;14.05;;;12.40;;
21754;SDS011;11039;50.028;19.938;2023-06-22T13:10:07;14.60;;;13.05;;
21754;SDS011;11039;50.028;19.938;2023-06-22T13:12:33;15.95;;;13.20;;
21754;SDS011;11039;50.028;19.938;2023-06-22T13:14:59;12.93;;;11.52;;
21754;SDS011;11039;50.028;19.938;2023-06-22T13:17:27;13.82;;;12.27;;
21754;SDS011;11039;50.028;19.938;2023-06-22T13:19:53;14.60;;;13.10;;
21754;SDS011;11039;50.028;19.938;2023-06-22T13:24:53;13.10;;;11.70;;
21754;SDS011;11039;50.028;19.938;2023-06-22T13:29:39;13.60;;;12.25;;
21754;SDS011;11039;50.028;19.938;2023-06-22T13:32:05;13.20;;;11.90;;
21754;SDS011;11039;50.028;19.938;2023-06-22T13:34:31;15.05;;;12.45;;
21754;SDS011;11039;50.028;19.938;2023-06-22T13:36:57;12.82;;;11.50;;
21754;SDS011;11039;50.028;19.938;2023-06-22T13:39:23;14.30;;;12.80;;
21754;SDS011;11039;50.028;19.938;2023-06-22T13:41:49;13.57;;;12.18;;
21754;SDS011;11039;50.028;19.938;2023-06-22T13:44:15;13.80;;;12.43;;
21754;SDS011;11039;50.028;19.938;2023-06-22T13:46:41;14.38;;;12.85;;
21754;SDS011;11039;50.028;19.938;2023-06-22T13:49:07;13.93;;;12.10;;
21754;SDS011;11039;50.028;19.938;2023-06-22T13:51:33;12.43;;;11.25;;
21754;SDS011;11039;50.028;19.938;2023-06-22T13:53:59;13.20;;;11.77;;
21754;SDS011;11039;50.028;19.938;2023-06-22T13:56:25;12.82;;;11.45;;
21754;SDS011;11039;50.028;19.938;2023-06-22T13:58:51;12.25;;;11.05;;
21754;SDS011;11039;50.028;19.938;2023-06-22T14:01:18;13.10;;;11.32;;
21754;SDS011;11039;50.028;19.938;2023-06-22T14:03:44;13.85;;;11.35;;
21754;SDS011;11039;50.028;19.938;2023-06-22T14:06:12;12.18;;;10.98;;
21754;SDS011;11039;50.028;19.938;2023-06-22T14:08:38;12.45;;;10.43;;
21754;SDS011;11039;50.028;19.938;2023-06-22T14:11:04;11.68;;;10.48;;
21754;SDS011;11039;50.028;19.938;2023-06-22T14:13:30;11.75;;;10.63;;
21754;SDS011;11039;50.028;19.938;2023-06-22T14:15:56;11.57;;;10.40;;
21754;SDS011;11039;50.028;19.938;2023-06-22T14:18:22;13.68;;;10.25;;
21754;SDS011;11039;50.028;19.938;2023-06-22T14:20:49;12.75;;;11.40;;
21754;SDS011;11039;50.028;19.938;2023-06-22T14:23:15;11.48;;;10.38;;
21754;SDS011;11039;50.028;19.938;2023-06-22T14:25:41;11.55;;;10.35;;
21754;SDS011;11039;50.028;19.938;2023-06-22T14:28:07;10.98;;;9.75;;
21754;SDS011;11039;50.028;19.938;2023-06-22T14:30:33;10.95;;;9.85;;
21754;SDS011;11039;50.028;19.938;2023-06-22T14:32:59;10.18;;;9.27;;
21754;SDS011;11039;50.028;19.938;2023-06-22T14:35:25;11.27;;;10.18;;
21754;SDS011;11039;50.028;19.938;2023-06-22T14:40:10;11.82;;;10.10;;
21754;SDS011;11039;50.028;19.938;2023-06-22T14:42:36;10.95;;;9.95;;
21754;SDS011;11039;50.028;19.938;2023-06-22T14:45:02;10.55;;;9.50;;
21754;SDS011;11039;50.028;19.938;2023-06-22T14:47:28;10.98;;;9.95;;
21754;SDS011;11039;50.028;19.938;2023-06-22T14:49:55;10.93;;;9.82;;
21754;SDS011;11039;50.028;19.938;2023-06-22T14:52:21;11.60;;;10.50;;
21754;SDS011;11039;50.028;19.938;2023-06-22T14:54:47;12.60;;;9.38;;
21754;SDS011;11039;50.028;19.938;2023-06-22T14:57:13;10.90;;;9.57;;
21754;SDS011;11039;50.028;19.938;2023-06-22T14:59:43;11.23;;;10.07;;
21754;SDS011;11039;50.028;19.938;2023-06-22T15:02:09;11.27;;;10.10;;
21754;SDS011;11039;50.028;19.938;2023-06-22T15:04:35;11.88;;;10.10;;
21754;SDS011;11039;50.028;19.938;2023-06-22T15:07:01;11.32;;;10.23;;
21754;SDS011;11039;50.028;19.938;2023-06-22T15:09:27;11.18;;;10.07;;
21754;SDS011;11039;50.028;19.938;2023-06-22T15:11:53;10.82;;;9.73;;
21754;SDS011;11039;50.028;19.938;2023-06-22T15:14:19;10.75;;;9.65;;